Cut Bank Municipal Airport
KCTB : now visible

Airfield :











YOU CAN JOIN US ON...

 
LOGIN :

Register | Disclaimer

   EN    FR    IT 

 









Legend :    VFR   Marginal VFR   IFR   Intensive IFR   Very Intensive IFR
Visi :
Ceiling :
>= 8 km
>= 3000ft
5 to 8 km
1000 to 3000 ft
1500m to 5 km
500 to 1000 ft
800 to 1500m
200 to 500 ft
< 800m
< 200 ft
Symbols :   Thunderstorms  Fog  Heavy snow  Heavy precipitations  Wind > 20 kt






- Airport Elevation : 3854 ft


KCTB - Cut Bank Municipal

CURRENT METAR :
  • 221356Z AUTO 31005KT 10SM OVC085 M12/M14 A3038 RMK AO2 SLP348 T11171139

EXPIRED METARs :
  • 221256Z AUTO 31005KT 10SM BKN060 OVC085 M11/M14 A3037 RMK AO2 SLP345 T11111139
  • 221207Z AUTO 36009KT 10SM FEW023 OVC055 M11/M14 A3036 RMK AO2 T11061139
  • 221156Z AUTO 36009KT 10SM BKN023 OVC055 M11/M14 A3036 RMK AO2 SLP338 60000 70003 T11111139 11078 21122 53013

TAF KCTB
Valid from the 22 at 12:00 until the 23 at 12:00 UTC


221135Z 2212/2312 32011KT P6SM VCSH SCT010 OVC025
FM221400 32010KT P6SM SCT025 BKN050
FM221700 35007KT P6SM SCT050
FM230000 11007KT P6SM SCT015 BKN050
KZLC FIR / North America



MET'MAP, your aeronautical weather chart ! - Copyright ORBIFLY December 2007 - Disclaimer

ORBIFLY MET'MAP TEAM :

Programming & Development : Alexandra Zaïnal
Concept & original design : Baudouin d'Aumeries
Assistance for programming : Marc-Olivier Méhu
Technical & hardware support : Manuel Goepfert

Contact : metmap@orbifly.com




SOURCES & CREDITS :

   NOAA       Earth
Advisory